Time;durP1;ratioP1;P1;durP2;ratioP2;P2;SDS_P1;SDS_P2;PMS_P1;PMS_P2;Temp;Humidity;BMP_temperature;BMP_pressure;BME280_temperature;BME280_humidity;BME280_pressure;Samples;Min_cycle;Max_cycle;Signal;HPM_P1;HPM_P2
2022/05/24 05:38:07;;;;;;;;;;;15.10;99.10;;;;;;4970801;28;19933;-70
2022/05/24 05:40:34;;;;;;;;;;;15.20;99.10;;;;;;4963167;28;19929;-70
2022/05/24 05:43:00;;;;;;;;;;;15.20;99.00;;;;;;4964141;28;19914;-70
2022/05/24 05:45:27;;;;;;;;;;;15.20;99.00;;;;;;4972169;28;19945;-68
2022/05/24 05:47:54;;;;;;;;;;;15.20;99.10;;;;;;4974378;28;19913;-69
2022/05/24 05:50:22;;;;;;;;;;;15.20;99.00;;;;;;4966482;28;19911;-69
2022/05/24 05:52:49;;;;;;;;;;;15.20;99.00;;;;;;4951691;29;20361;-69
2022/05/24 05:55:16;;;;;;;;;;;15.20;99.00;;;;;;4932867;28;20461;-69
2022/05/24 05:57:43;;;;;;;;;;;15.20;99.00;;;;;;4956013;28;19980;-68
2022/05/24 06:00:11;;;;;;;;;;;15.20;99.00;;;;;;4948457;29;20412;-67
2022/05/24 06:02:38;;;;;;;;;;;15.20;98.90;;;;;;4954371;28;20005;-68
2022/05/24 06:05:05;;;;;;;;;;;15.20;99.00;;;;;;4954064;28;20281;-68
2022/05/24 06:07:32;;;;;;;;;;;15.20;98.90;;;;;;4937949;29;20203;-68
2022/05/24 06:09:59;;;;;;;;;;;15.20;98.90;;;;;;4954566;29;19918;-68
2022/05/24 06:12:26;;;;;;;;;;;15.20;98.90;;;;;;4943054;28;19922;-68
2022/05/24 06:14:53;;;;;;;;;;;15.20;98.90;;;;;;4961372;28;20419;-68
2022/05/24 06:17:24;;;;;;;;;;;15.20;98.90;;;;;;4962951;28;19922;-68
2022/05/24 06:19:50;;;;;;;;;;;15.20;98.90;;;;;;4953559;29;20392;-69
2022/05/24 06:22:17;;;;;;;;;;;15.20;98.90;;;;;;4955587;28;19914;-69
2022/05/24 06:24:46;;;;;;;;;;;15.20;98.70;;;;;;4961552;28;19965;-69
2022/05/24 06:27:13;;;;;;;;;;;15.10;98.70;;;;;;4954754;28;19911;-69
2022/05/24 06:29:40;;;;;;;;;;;15.20;98.70;;;;;;4954276;29;19936;-69
2022/05/24 06:32:08;;;;;;;;;;;15.20;98.70;;;;;;4953991;29;19906;-69
2022/05/24 06:34:34;;;;;;;;;;;15.10;98.80;;;;;;4962391;28;19921;-69
2022/05/24 06:37:01;;;;;;;;;;;15.10;98.70;;;;;;4960595;28;19919;-69
2022/05/24 06:39:29;;;;;;;;;;;15.10;98.80;;;;;;4949902;28;19953;-69
2022/05/24 06:41:56;;;;;;;;;;;15.10;98.80;;;;;;4935353;28;19911;-69
2022/05/24 06:44:22;;;;;;;;;;;15.20;98.80;;;;;;4959025;28;19962;-69
2022/05/24 06:46:49;;;;;;;;;;;15.10;98.80;;;;;;4953612;29;19910;-69
2022/05/24 06:49:16;;;;;;;;;;;15.10;98.80;;;;;;4950422;28;20004;-68
2022/05/24 06:51:43;;;;;;;;;;;15.00;98.70;;;;;;4941632;29;20273;-67
2022/05/24 06:54:09;;;;;;;;;;;15.00;98.70;;;;;;4951782;28;20280;-67
2022/05/24 06:56:36;;;;;;;;;;;15.00;98.70;;;;;;4960016;28;19913;-67
2022/05/24 07:04:32;;;;;;;;;;;14.90;98.70;;;;;;4931425;29;19950;-68
2022/05/24 07:06:59;;;;;;;;;;;14.90;98.80;;;;;;4934721;28;19917;-68
2022/05/24 07:09:29;;;;;;;;;;;15.00;98.80;;;;;;4970317;28;19914;-69
2022/05/24 07:11:56;;;;;;;;;;;15.00;98.90;;;;;;4954863;28;20743;-69
2022/05/24 07:14:22;;;;;;;;;;;14.90;98.80;;;;;;4950659;28;19910;-69
2022/05/24 07:16:49;;;;;;;;;;;14.80;98.80;;;;;;4950813;28;20297;-67
2022/05/24 07:19:15;;;;;;;;;;;14.80;98.80;;;;;;4954219;29;19914;-66
2022/05/24 07:21:42;;;;;;;;;;;14.80;98.80;;;;;;4966570;28;19924;-66
2022/05/24 07:24:09;;;;;;;;;;;14.80;98.80;;;;;;4973215;28;19906;-66
2022/05/24 07:26:35;;;;;;;;;;;14.80;98.80;;;;;;4973116;28;20395;-66
2022/05/24 07:29:02;;;;;;;;;;;14.80;98.80;;;;;;4973439;28;20284;-66
2022/05/24 07:31:29;;;;;;;;;;;14.80;98.80;;;;;;4961644;28;20001;-66
2022/05/24 07:33:55;;;;;;;;;;;14.70;98.60;;;;;;4953844;29;19932;-67
2022/05/24 07:36:22;;;;;;;;;;;14.80;98.70;;;;;;4954226;28;19960;-67
2022/05/24 07:38:49;;;;;;;;;;;14.70;98.60;;;;;;4954107;29;19929;-66
2022/05/24 07:46:44;;;;;;;;;;;14.70;98.70;;;;;;4945429;29;20747;-66
2022/05/24 07:49:11;;;;;;;;;;;14.80;98.80;;;;;;4948688;28;19921;-66
2022/05/24 07:51:38;;;;;;;;;;;14.80;98.80;;;;;;4953955;28;19914;-71
2022/05/24 07:54:04;;;;;;;;;;;14.80;98.80;;;;;;4924940;28;19914;-68
2022/05/24 07:56:31;;;;;;;;;;;14.70;98.80;;;;;;4965943;28;20522;-68
2022/05/24 07:58:58;;;;;;;;;;;14.70;98.80;;;;;;4973128;28;19917;-68
2022/05/24 08:01:24;;;;;;;;;;;14.70;98.80;;;;;;4970626;28;20010;-69
2022/05/24 08:03:51;;;;;;;;;;;14.70;98.80;;;;;;4973253;28;20329;-67
2022/05/24 08:06:18;;;;;;;;;;;14.70;98.80;;;;;;4937621;28;19914;-67
2022/05/24 08:08:44;;;;;;;;;;;14.70;98.70;;;;;;4953763;29;20369;-67
2022/05/24 08:11:11;;;;;;;;;;;14.70;98.70;;;;;;4953320;29;19953;-67
2022/05/24 08:13:37;;;;;;;;;;;14.70;98.80;;;;;;4968174;28;20005;-68
2022/05/24 08:16:04;;;;;;;;;;;14.70;98.80;;;;;;4968563;28;19914;-69
2022/05/24 08:18:31;;;;;;;;;;;14.60;98.80;;;;;;4960237;28;19914;-70
2022/05/24 08:20:57;;;;;;;;;;;14.60;98.70;;;;;;4946981;28;19986;-69
2022/05/24 08:23:24;;;;;;;;;;;14.60;98.70;;;;;;4953082;28;19917;-70
2022/05/24 08:25:51;;;;;;;;;;;14.60;98.60;;;;;;4944760;28;20341;-70
2022/05/24 08:28:18;;;;;;;;;;;14.60;98.70;;;;;;4952811;28;19921;-68
2022/05/24 08:30:44;;;;;;;;;;;14.60;98.70;;;;;;4947038;29;19910;-68
2022/05/24 08:33:12;;;;;;;;;;;14.60;98.80;;;;;;4956539;28;19998;-66
2022/05/24 08:35:39;;;;;;;;;;;14.60;98.70;;;;;;4972562;28;19910;-65
2022/05/24 08:38:05;;;;;;;;;;;14.50;98.60;;;;;;4972167;28;19910;-66
2022/05/24 08:40:34;;;;;;;;;;;14.50;98.60;;;;;;4972373;28;19954;-67
2022/05/24 08:43:01;;;;;;;;;;;14.40;98.60;;;;;;4970090;28;20020;-65
2022/05/24 08:48:40;;;;;;;;;;;14.50;98.70;;;;;;4965495;28;20281;-67
2022/05/24 08:51:15;;;;;;;;;;;14.50;98.70;;;;;;4962980;28;19961;-70
2022/05/24 08:53:45;;;;;;;;;;;14.50;98.80;;;;;;4965029;28;19910;-71
2022/05/24 08:56:15;;;;;;;;;;;14.50;98.80;;;;;;4953062;28;20420;-68
2022/05/24 08:58:51;;;;;;;;;;;14.60;98.80;;;;;;4967573;28;19910;-66
2022/05/24 09:01:17;;;;;;;;;;;14.60;98.80;;;;;;4965208;28;19914;-67
2022/05/24 09:03:45;;;;;;;;;;;14.60;98.80;;;;;;4959765;28;19914;-69
2022/05/24 09:06:31;;;;;;;;;;;14.60;98.90;;;;;;4972287;28;19958;-69
2022/05/24 09:08:58;;;;;;;;;;;14.60;98.80;;;;;;4953000;28;19914;-70
2022/05/24 09:11:33;;;;;;;;;;;14.60;98.80;;;;;;4952505;29;20290;-70
2022/05/24 09:14:03;;;;;;;;;;;14.60;98.90;;;;;;4952424;28;19961;-69
2022/05/24 09:16:56;;;;;;;;;;;14.60;98.90;;;;;;4952703;29;20061;-70
2022/05/24 09:19:26;;;;;;;;;;;14.70;99.00;;;;;;4949528;29;19925;-66
2022/05/24 09:21:53;;;;;;;;;;;14.70;98.90;;;;;;4967238;28;19911;-66
2022/05/24 09:24:38;;;;;;;;;;;14.70;98.90;;;;;;4966198;28;20420;-65
2022/05/24 09:27:16;;;;;;;;;;;14.70;98.90;;;;;;4952090;29;20257;-66
2022/05/24 09:29:58;;;;;;;;;;;14.60;98.80;;;;;;4967867;28;19914;-66
2022/05/24 09:32:29;;;;;;;;;;;14.70;98.80;;;;;;4952482;29;19915;-68
2022/05/24 09:35:11;;;;;;;;;;;14.70;98.80;;;;;;4953330;28;19910;-69
2022/05/24 09:37:37;;;;;;;;;;;14.70;98.80;;;;;;4970282;28;19918;-70
2022/05/24 09:40:19;;;;;;;;;;;14.70;98.80;;;;;;4966453;28;19922;-66
2022/05/24 09:42:46;;;;;;;;;;;14.70;98.80;;;;;;4945027;29;19910;-66
2022/05/24 09:45:16;;;;;;;;;;;14.70;98.70;;;;;;4950597;28;19980;-66
2022/05/24 09:47:43;;;;;;;;;;;14.70;98.70;;;;;;4933070;29;19917;-66
2022/05/24 09:50:20;;;;;;;;;;;14.70;98.70;;;;;;4932742;29;19917;-67
2022/05/24 09:53:05;;;;;;;;;;;14.70;98.70;;;;;;4933564;29;19918;-69
2022/05/24 09:55:59;;;;;;;;;;;14.70;98.90;;;;;;4932265;29;19915;-67
2022/05/24 09:58:30;;;;;;;;;;;14.70;98.90;;;;;;4930369;29;19914;-67
2022/05/24 10:00:58;;;;;;;;;;;14.70;99.00;;;;;;4949428;29;19918;-67
2022/05/24 10:03:43;;;;;;;;;;;14.60;99.00;;;;;;4950559;29;19911;-68
2022/05/24 10:06:10;;;;;;;;;;;14.70;99.10;;;;;;4951347;29;20285;-67
2022/05/24 10:08:41;;;;;;;;;;;14.70;99.10;;;;;;4937414;29;20288;-67
2022/05/24 10:11:11;;;;;;;;;;;14.60;99.10;;;;;;4966356;28;19906;-67
2022/05/24 10:13:44;;;;;;;;;;;14.70;99.10;;;;;;4966025;28;19929;-67
2022/05/24 10:16:14;;;;;;;;;;;14.60;99.20;;;;;;4966666;28;19933;-68
2022/05/24 10:18:51;;;;;;;;;;;14.60;99.20;;;;;;4950430;29;19911;-70
2022/05/24 10:21:19;;;;;;;;;;;14.60;99.10;;;;;;4951580;29;19914;-71
2022/05/24 10:23:48;;;;;;;;;;;14.60;99.10;;;;;;4934543;29;19953;-67
2022/05/24 10:26:30;;;;;;;;;;;14.50;99.10;;;;;;4934282;29;20411;-67
2022/05/24 10:28:59;;;;;;;;;;;14.60;99.20;;;;;;4942795;29;19910;-73
2022/05/24 10:31:47;;;;;;;;;;;14.60;99.20;;;;;;4940119;29;19914;-68
2022/05/24 10:40:44;;;;;;;;;;;14.50;99.20;;;;;;4960057;28;19933;-69
2022/05/24 10:43:22;;;;;;;;;;;14.50;99.20;;;;;;4969362;28;19932;-68
2022/05/24 10:45:52;;;;;;;;;;;14.50;99.20;;;;;;4963850;28;20285;-68
2022/05/24 10:48:31;;;;;;;;;;;14.50;99.20;;;;;;4965886;28;19910;-68
2022/05/24 10:51:01;;;;;;;;;;;14.50;99.20;;;;;;4951830;28;19942;-67
2022/05/24 10:54:06;;;;;;;;;;;14.40;99.20;;;;;;4965145;28;20425;-68
2022/05/24 10:56:35;;;;;;;;;;;14.40;99.20;;;;;;4891634;29;19980;-68
2022/05/24 10:59:12;;;;;;;;;;;14.50;99.30;;;;;;4890859;29;19940;-68
2022/05/24 11:01:43;;;;;;;;;;;14.50;99.20;;;;;;4906569;29;19930;-69
2022/05/24 11:04:13;;;;;;;;;;;14.50;99.20;;;;;;4965286;28;19910;-68
2022/05/24 11:06:40;;;;;;;;;;;14.50;99.20;;;;;;4965625;28;20400;-68
2022/05/24 11:09:07;;;;;;;;;;;14.50;99.20;;;;;;4953170;28;19917;-67
2022/05/24 11:11:33;;;;;;;;;;;14.50;99.20;;;;;;4970277;28;19953;-68
2022/05/24 11:14:00;;;;;;;;;;;14.40;99.20;;;;;;4948004;28;20357;-68
2022/05/24 11:16:31;;;;;;;;;;;14.40;99.20;;;;;;4940972;29;19914;-68
2022/05/24 11:18:58;;;;;;;;;;;14.50;99.30;;;;;;4929136;28;20014;-71
2022/05/24 11:21:34;;;;;;;;;;;14.50;99.30;;;;;;4958981;28;20357;-70
2022/05/24 11:24:08;;;;;;;;;;;14.40;99.20;;;;;;4950333;28;19910;-69
2022/05/24 11:26:36;;;;;;;;;;;14.40;99.30;;;;;;4933596;29;20369;-69
2022/05/24 11:29:33;;;;;;;;;;;14.40;99.20;;;;;;4953181;28;20005;-70
2022/05/24 11:32:01;;;;;;;;;;;14.30;99.20;;;;;;4935264;28;19941;-71
2022/05/24 11:34:28;;;;;;;;;;;14.30;99.20;;;;;;4939582;28;20323;-70
2022/05/24 11:37:01;;;;;;;;;;;14.30;99.20;;;;;;4955606;28;19950;-71
2022/05/24 11:39:33;;;;;;;;;;;14.30;99.20;;;;;;4953977;28;20057;-71
2022/05/24 11:42:18;;;;;;;;;;;14.30;99.20;;;;;;4948349;29;19917;-71
2022/05/24 11:44:44;;;;;;;;;;;14.20;99.20;;;;;;4950629;28;19914;-70
2022/05/24 11:47:30;;;;;;;;;;;14.20;99.20;;;;;;4950183;28;19914;-70
2022/05/24 11:49:58;;;;;;;;;;;14.20;99.10;;;;;;4953513;28;20359;-71
2022/05/24 11:52:39;;;;;;;;;;;14.10;99.10;;;;;;4954686;28;20392;-70
2022/05/24 11:55:06;;;;;;;;;;;14.10;99.10;;;;;;4953395;28;19947;-69
2022/05/24 11:57:40;;;;;;;;;;;14.10;99.10;;;;;;4961445;28;20020;-70
2022/05/24 12:00:08;;;;;;;;;;;14.10;99.10;;;;;;4950971;28;19922;-70
2022/05/24 12:07:54;;;;;;;;;;;14.10;99.00;;;;;;4932603;29;20348;-68
2022/05/24 12:08:29;;;;;;;;;;;14.00;99.00;;;;;;4964778;28;19921;-69
2022/05/24 12:11:05;;;;;;;;;;;14.00;99.00;;;;;;4957150;28;19914;-68
2022/05/24 12:13:38;;;;;;;;;;;14.00;99.00;;;;;;4952792;29;19907;-69
2022/05/24 12:16:05;;;;;;;;;;;14.00;99.00;;;;;;4936653;29;19918;-68
2022/05/24 12:18:37;;;;;;;;;;;14.00;99.00;;;;;;4948371;28;20028;-68
2022/05/24 12:21:03;;;;;;;;;;;14.00;99.10;;;;;;4971670;28;19958;-68
2022/05/24 12:23:30;;;;;;;;;;;14.00;99.00;;;;;;4972891;28;19914;-69
2022/05/24 12:26:13;;;;;;;;;;;14.00;99.00;;;;;;4972674;28;19917;-68
2022/05/24 12:28:40;;;;;;;;;;;14.00;99.00;;;;;;4965961;28;19918;-69
2022/05/24 12:31:19;;;;;;;;;;;14.00;99.00;;;;;;4973155;28;19910;-70
2022/05/24 12:33:51;;;;;;;;;;;14.00;99.00;;;;;;4972972;28;19906;-70
2022/05/24 12:36:23;;;;;;;;;;;14.00;99.00;;;;;;4972698;28;19914;-69
2022/05/24 12:38:51;;;;;;;;;;;14.00;99.00;;;;;;4959034;28;20658;-69
2022/05/24 12:41:25;;;;;;;;;;;14.00;98.90;;;;;;4953537;29;19942;-70
2022/05/24 12:43:55;;;;;;;;;;;13.90;98.90;;;;;;4954014;29;20013;-70
2022/05/24 12:46:21;;;;;;;;;;;13.80;98.90;;;;;;4953551;28;19917;-69
2022/05/24 12:48:48;;;;;;;;;;;13.80;98.90;;;;;;4968066;28;19918;-68
2022/05/24 12:51:18;;;;;;;;;;;13.80;98.90;;;;;;4953061;29;19918;-67
2022/05/24 12:53:44;;;;;;;;;;;13.90;98.90;;;;;;4967912;28;20001;-67
2022/05/24 12:56:19;;;;;;;;;;;13.80;98.90;;;;;;4968020;28;19906;-69
2022/05/24 12:58:46;;;;;;;;;;;13.80;98.80;;;;;;4964924;28;19953;-71
2022/05/24 13:01:26;;;;;;;;;;;13.70;98.80;;;;;;4970565;28;20300;-70
2022/05/24 13:03:58;;;;;;;;;;;13.70;98.70;;;;;;4971390;28;20266;-67
2022/05/24 13:06:26;;;;;;;;;;;13.70;98.70;;;;;;4972235;28;20313;-67
2022/05/24 13:09:11;;;;;;;;;;;13.70;98.70;;;;;;4959113;28;20281;-68
2022/05/24 13:11:38;;;;;;;;;;;13.70;98.70;;;;;;4952702;29;19961;-67
2022/05/24 13:14:05;;;;;;;;;;;13.60;98.70;;;;;;4967203;28;19918;-68
2022/05/24 13:16:33;;;;;;;;;;;13.70;98.80;;;;;;4952621;28;20012;-67
2022/05/24 13:18:59;;;;;;;;;;;13.60;98.70;;;;;;4951855;28;19918;-68
2022/05/24 13:21:26;;;;;;;;;;;13.60;98.70;;;;;;4969872;28;19915;-67
2022/05/24 13:24:15;;;;;;;;;;;13.60;98.70;;;;;;4958154;28;19910;-67
2022/05/24 13:27:01;;;;;;;;;;;13.60;98.70;;;;;;4953569;29;19910;-67
2022/05/24 13:29:29;;;;;;;;;;;13.60;98.70;;;;;;4955376;28;19910;-67
2022/05/24 13:34:58;;;;;;;;;;;13.60;98.70;;;;;;4968298;28;19961;-68
2022/05/24 13:37:25;;;;;;;;;;;13.70;98.70;;;;;;4969506;28;19930;-68
2022/05/24 13:39:54;;;;;;;;;;;13.70;98.70;;;;;;4970316;28;19918;-68
2022/05/24 13:42:22;;;;;;;;;;;13.60;98.70;;;;;;4955636;29;19917;-68
2022/05/24 13:45:06;;;;;;;;;;;13.60;98.70;;;;;;4955032;28;19918;-68
2022/05/24 13:47:34;;;;;;;;;;;13.60;98.60;;;;;;4960429;28;20365;-67
2022/05/24 13:50:15;;;;;;;;;;;13.60;98.60;;;;;;4957617;28;19913;-68
2022/05/24 13:52:50;;;;;;;;;;;13.60;98.60;;;;;;4954957;29;19906;-68
2022/05/24 13:55:24;;;;;;;;;;;13.60;98.60;;;;;;4955013;28;20284;-67
2022/05/24 13:58:08;;;;;;;;;;;13.60;98.60;;;;;;4962140;28;20357;-68
2022/05/24 14:00:41;;;;;;;;;;;13.70;98.70;;;;;;4972603;28;20200;-68
2022/05/24 14:03:10;;;;;;;;;;;13.70;98.70;;;;;;4974235;28;20304;-67
2022/05/24 14:05:37;;;;;;;;;;;13.70;98.70;;;;;;4974333;28;19917;-67
2022/05/24 14:08:05;;;;;;;;;;;13.70;98.80;;;;;;4948033;29;19918;-67
2022/05/24 14:10:32;;;;;;;;;;;13.70;98.80;;;;;;4955677;29;19918;-67
2022/05/24 14:12:58;;;;;;;;;;;13.70;98.70;;;;;;4970000;28;19913;-67
2022/05/24 14:15:25;;;;;;;;;;;13.70;98.70;;;;;;4954882;28;19911;-67
2022/05/24 14:17:52;;;;;;;;;;;13.70;98.70;;;;;;4961360;28;20001;-67
2022/05/24 14:20:19;;;;;;;;;;;13.70;98.70;;;;;;4973856;28;19918;-67
2022/05/24 14:22:45;;;;;;;;;;;13.60;98.70;;;;;;4973730;28;19910;-67
2022/05/24 14:25:13;;;;;;;;;;;13.60;98.60;;;;;;4973942;28;19906;-67
2022/05/24 14:27:40;;;;;;;;;;;13.60;98.60;;;;;;4967702;28;19911;-67
2022/05/24 14:30:07;;;;;;;;;;;13.60;98.70;;;;;;4954782;29;20348;-67
2022/05/24 14:32:34;;;;;;;;;;;13.50;98.60;;;;;;4955035;29;20016;-67
2022/05/24 14:35:02;;;;;;;;;;;13.50;98.60;;;;;;4954595;28;19907;-67
2022/05/24 14:37:29;;;;;;;;;;;13.50;98.60;;;;;;4971825;28;19942;-67
2022/05/24 14:39:56;;;;;;;;;;;13.50;98.60;;;;;;4956968;28;19918;-67
2022/05/24 18:36:03;;;;;;;;;;;12.70;98.00;;;;;;4941735;29;19966;-66
2022/05/24 18:38:30;;;;;;;;;;;12.70;98.00;;;;;;4923535;29;19971;-66
2022/05/24 18:40:57;;;;;;;;;;;12.70;97.90;;;;;;4953533;29;19921;-66
2022/05/24 18:43:23;;;;;;;;;;;12.60;98.00;;;;;;4920932;29;19918;-67
2022/05/24 18:45:50;;;;;;;;;;;12.70;98.10;;;;;;4936250;29;19914;-67
2022/05/24 18:48:16;;;;;;;;;;;12.70;98.10;;;;;;4935294;29;19925;-67
2022/05/24 18:50:43;;;;;;;;;;;12.70;98.10;;;;;;4920338;29;19919;-67
2022/05/24 18:53:10;;;;;;;;;;;12.70;98.10;;;;;;4935955;29;20328;-67
2022/05/24 18:55:39;;;;;;;;;;;12.70;98.00;;;;;;4953348;28;20281;-67
2022/05/24 18:58:06;;;;;;;;;;;12.70;98.10;;;;;;4953394;29;19910;-67
2022/05/24 19:00:32;;;;;;;;;;;12.70;98.10;;;;;;4953503;28;19922;-67
2022/05/24 19:02:59;;;;;;;;;;;12.70;98.10;;;;;;4953636;29;19930;-68
2022/05/24 19:05:26;;;;;;;;;;;12.70;98.10;;;;;;4953848;28;20262;-67
2022/05/24 19:07:52;;;;;;;;;;;12.70;98.20;;;;;;4953288;29;19993;-68
2022/05/24 19:10:19;;;;;;;;;;;12.70;98.30;;;;;;4972013;28;19913;-68
2022/05/24 19:12:46;;;;;;;;;;;12.70;98.30;;;;;;4958365;28;20318;-68
2022/05/24 19:15:12;;;;;;;;;;;12.70;98.40;;;;;;4953872;29;19922;-68
2022/05/24 19:17:40;;;;;;;;;;;12.70;98.40;;;;;;4953621;29;19910;-67
2022/05/24 19:20:08;;;;;;;;;;;12.70;98.50;;;;;;4952958;29;19972;-68
2022/05/24 19:22:35;;;;;;;;;;;12.70;98.60;;;;;;4953292;29;19937;-68
2022/05/24 19:25:01;;;;;;;;;;;12.70;98.60;;;;;;4952016;28;19933;-67
2022/05/24 19:27:29;;;;;;;;;;;12.70;98.60;;;;;;4946189;28;20326;-67
2022/05/24 19:29:57;;;;;;;;;;;12.70;98.60;;;;;;4951301;29;19962;-67
2022/05/24 19:32:24;;;;;;;;;;;12.70;98.60;;;;;;4953405;29;19910;-67
2022/05/24 19:34:52;;;;;;;;;;;12.70;98.70;;;;;;4935733;29;20305;-67
2022/05/24 19:37:19;;;;;;;;;;;12.70;98.70;;;;;;4951872;28;19929;-68
2022/05/24 19:42:30;;;;;;;;;;;12.70;98.70;;;;;;4938449;29;19939;-68
2022/05/24 19:45:01;;;;;;;;;;;12.70;98.70;;;;;;4952712;28;19985;-68
2022/05/24 19:47:27;;;;;;;;;;;12.70;98.70;;;;;;4952407;29;19911;-68
2022/05/24 19:49:54;;;;;;;;;;;12.70;98.70;;;;;;4953937;29;19946;-68
2022/05/24 19:52:21;;;;;;;;;;;12.70;98.80;;;;;;4953687;29;19911;-68
2022/05/24 19:54:48;;;;;;;;;;;12.80;98.80;;;;;;4936831;29;19906;-68
2022/05/24 19:57:15;;;;;;;;;;;12.80;98.80;;;;;;4954035;29;20116;-68
2022/05/24 19:59:42;;;;;;;;;;;12.80;98.80;;;;;;4954031;29;19913;-68
2022/05/24 20:02:09;;;;;;;;;;;12.80;98.80;;;;;;4953782;29;20286;-68
2022/05/24 20:04:39;;;;;;;;;;;12.80;98.80;;;;;;4953889;28;19997;-68
2022/05/24 20:07:06;;;;;;;;;;;12.80;98.80;;;;;;4953680;29;20382;-68
2022/05/24 20:09:33;;;;;;;;;;;12.80;98.80;;;;;;4953633;28;19958;-68
2022/05/24 20:12:00;;;;;;;;;;;12.70;98.80;;;;;;4953609;29;19910;-69
2022/05/24 20:14:26;;;;;;;;;;;12.80;98.80;;;;;;4953891;28;19962;-68
2022/05/24 20:16:53;;;;;;;;;;;12.80;98.80;;;;;;4953901;29;19913;-68
2022/05/24 20:19:19;;;;;;;;;;;12.70;98.80;;;;;;4953681;29;19948;-68
2022/05/24 20:21:46;;;;;;;;;;;12.80;98.80;;;;;;4953921;28;19925;-68
2022/05/24 20:24:12;;;;;;;;;;;12.70;98.80;;;;;;4953647;28;19923;-68
2022/05/24 21:24:41;;;;;;;;;;;12.70;98.90;;;;;;4948372;28;19972;-67
2022/05/24 21:29:53;;;;;;;;;;;12.70;98.90;;;;;;4932130;29;19917;-68
2022/05/24 21:35:04;;;;;;;;;;;12.80;98.90;;;;;;4939436;28;20324;-68
2022/05/24 21:37:31;;;;;;;;;;;12.80;99.00;;;;;;4941818;28;20005;-68
2022/05/24 21:39:57;;;;;;;;;;;12.80;98.90;;;;;;4961546;28;19918;-68
2022/05/24 21:42:24;;;;;;;;;;;12.80;99.00;;;;;;4974935;28;20368;-68
2022/05/24 21:44:50;;;;;;;;;;;12.80;98.90;;;;;;4975032;28;19906;-68
2022/05/24 21:47:17;;;;;;;;;;;12.80;98.90;;;;;;4957358;28;19906;-68
2022/05/24 21:49:46;;;;;;;;;;;12.90;99.00;;;;;;4974838;28;19960;-68
2022/05/24 21:52:13;;;;;;;;;;;12.90;99.00;;;;;;4974812;28;19909;-68
2022/05/24 21:54:40;;;;;;;;;;;12.80;98.90;;;;;;4974664;28;19929;-68
2022/05/24 21:57:07;;;;;;;;;;;12.90;98.90;;;;;;4974566;28;19906;-68
2022/05/24 21:59:44;;;;;;;;;;;12.80;98.90;;;;;;4974519;28;20404;-68
2022/05/24 22:02:13;;;;;;;;;;;12.80;98.90;;;;;;4957850;28;19906;-68
2022/05/24 22:04:40;;;;;;;;;;;12.80;98.90;;;;;;4957304;28;20004;-68
2022/05/24 22:07:10;;;;;;;;;;;12.80;98.80;;;;;;4966670;28;20245;-68
2022/05/24 22:09:37;;;;;;;;;;;12.80;98.80;;;;;;4954699;29;19912;-68
2022/05/24 22:12:04;;;;;;;;;;;12.80;98.80;;;;;;4954921;29;20373;-68
2022/05/24 22:14:32;;;;;;;;;;;12.80;98.80;;;;;;4953744;29;19910;-69
2022/05/24 22:16:58;;;;;;;;;;;12.80;98.80;;;;;;4955022;29;19958;-69
2022/05/24 22:19:25;;;;;;;;;;;12.80;98.80;;;;;;4954960;29;19997;-68
2022/05/24 22:21:51;;;;;;;;;;;12.90;98.90;;;;;;4955294;29;19918;-68
